createdAt,value
2023-04-14T00:00:21.065Z,81.40
2023-04-14T00:02:49.434Z,81.50
2023-04-14T00:05:17.745Z,81.40
2023-04-14T00:07:47.354Z,81.40
2023-04-14T00:10:15.608Z,81.50
2023-04-14T00:12:43.877Z,81.40
2023-04-14T00:15:12.659Z,81.50
2023-04-14T00:17:41.008Z,81.50
2023-04-14T00:20:10.165Z,81.50
2023-04-14T00:22:38.486Z,81.50
2023-04-14T00:25:08.773Z,81.50
2023-04-14T00:27:37.015Z,81.60
2023-04-14T00:30:06.178Z,82.20
2023-04-14T00:32:36.091Z,81.50
2023-04-14T00:35:04.553Z,81.50
2023-04-14T00:37:32.755Z,81.50
2023-04-14T00:40:02.095Z,81.50
2023-04-14T00:42:31.959Z,81.60
2023-04-14T00:45:00.892Z,81.60
2023-04-14T00:47:29.327Z,81.50
2023-04-14T00:49:58.020Z,81.60
2023-04-14T00:52:27.328Z,81.60
2023-04-14T00:54:56.377Z,81.60
2023-04-14T00:57:24.887Z,81.60
2023-04-14T00:59:55.414Z,81.60
2023-04-14T01:02:24.028Z,81.50
2023-04-14T01:04:54.572Z,81.60
2023-04-14T01:07:24.776Z,81.60
2023-04-14T01:09:53.868Z,81.60
2023-04-14T01:12:31.623Z,81.60
2023-04-14T01:15:12.083Z,81.60
2023-04-14T01:17:50.027Z,81.60
2023-04-14T01:20:31.054Z,81.70
2023-04-14T01:23:05.731Z,81.60
2023-04-14T01:26:13.544Z,81.60
2023-04-14T01:29:25.804Z,81.70
2023-04-14T01:32:02.949Z,82.00
2023-04-14T01:34:37.699Z,81.60
2023-04-14T01:37:09.559Z,81.60
2023-04-14T01:39:41.276Z,81.50
2023-04-14T01:42:14.158Z,81.60
2023-04-14T01:44:43.801Z,81.70
2023-04-14T01:47:16.773Z,81.70
2023-04-14T01:49:47.682Z,81.60
2023-04-14T01:52:17.551Z,81.70
2023-04-14T01:54:50.577Z,81.70
2023-04-14T01:57:20.267Z,81.60
2023-04-14T01:59:51.448Z,81.70
2023-04-14T02:02:23.644Z,81.60
2023-04-14T02:04:53.370Z,81.60
2023-04-14T02:07:23.268Z,81.60
2023-04-14T02:09:53.440Z,82.50
2023-04-14T02:12:24.241Z,82.50
2023-04-14T02:14:54.112Z,81.70
2023-04-14T02:17:25.602Z,81.70
2023-04-14T02:19:56.080Z,81.70
2023-04-14T02:22:24.449Z,81.70
2023-04-14T02:24:55.063Z,81.70
2023-04-14T02:27:29.895Z,81.70
2023-04-14T02:30:06.378Z,81.80
2023-04-14T02:32:37.655Z,82.60
2023-04-14T02:35:12.279Z,81.80
2023-04-14T02:37:44.953Z,81.70
2023-04-14T02:40:16.530Z,81.80
2023-04-14T02:42:48.210Z,81.80
2023-04-14T02:45:22.338Z,81.80
2023-04-14T02:47:58.096Z,81.70
2023-04-14T02:50:29.305Z,81.80
2023-04-14T02:53:17.697Z,81.80
2023-04-14T02:55:47.900Z,81.80
2023-04-14T02:58:18.041Z,81.80
2023-04-14T03:00:47.722Z,81.90
2023-04-14T03:03:19.536Z,81.90
2023-04-14T03:05:48.969Z,81.80
2023-04-14T03:08:17.991Z,81.90
2023-04-14T03:10:49.861Z,82.00
2023-04-14T03:13:23.304Z,81.90
2023-04-14T03:15:53.259Z,81.90
2023-04-14T03:18:24.043Z,81.90
2023-04-14T03:20:55.905Z,82.00
2023-04-14T03:23:27.069Z,82.00
2023-04-14T03:26:03.288Z,82.00
2023-04-14T03:28:32.669Z,82.00
2023-04-14T03:31:06.081Z,82.00
2023-04-14T03:34:06.780Z,82.00
2023-04-14T03:36:41.280Z,82.10
2023-04-14T03:39:14.579Z,82.00
2023-04-14T03:41:47.903Z,83.00
2023-04-14T03:44:19.475Z,82.20
2023-04-14T03:46:51.004Z,82.10
2023-04-14T03:49:24.104Z,82.20
2023-04-14T03:51:55.714Z,82.10
2023-04-14T03:54:27.882Z,82.30
2023-04-14T03:56:58.280Z,82.20
2023-04-14T03:59:29.328Z,82.30
2023-04-14T04:01:58.818Z,82.20
2023-04-14T04:04:29.642Z,82.20
2023-04-14T04:06:59.923Z,82.30
2023-04-14T04:09:29.907Z,82.30
2023-04-14T04:11:59.895Z,82.30
2023-04-14T04:14:31.078Z,82.40
2023-04-14T04:17:03.409Z,82.30
2023-04-14T04:19:35.355Z,82.40
2023-04-14T04:22:05.740Z,82.40
2023-04-14T04:24:39.477Z,82.40
2023-04-14T04:27:24.243Z,82.40
2023-04-14T04:29:56.202Z,82.40
2023-04-14T04:32:25.110Z,82.40
2023-04-14T04:34:56.725Z,82.50
2023-04-14T04:37:28.708Z,83.20
2023-04-14T04:39:58.934Z,82.50
2023-04-14T04:42:28.281Z,82.40
2023-04-14T04:44:57.697Z,82.40
2023-04-14T04:47:26.412Z,82.40
2023-04-14T04:49:56.073Z,82.40
2023-04-14T04:52:26.756Z,82.40
2023-04-14T04:54:55.407Z,82.40
2023-04-14T04:57:23.702Z,82.50
2023-04-14T04:59:52.242Z,82.40
2023-04-14T05:02:20.539Z,82.40
2023-04-14T05:04:49.650Z,82.50
2023-04-14T05:07:19.732Z,82.50
2023-04-14T05:09:48.022Z,82.40
2023-04-14T05:12:17.760Z,82.30
2023-04-14T05:14:45.975Z,82.70
2023-04-14T05:17:14.209Z,82.40
2023-04-14T05:19:42.549Z,82.20
2023-04-14T05:22:11.124Z,82.20
2023-04-14T05:24:40.811Z,82.20
2023-04-14T05:27:14.328Z,82.10
2023-04-14T05:29:43.167Z,82.00
2023-04-14T05:32:13.090Z,81.90
2023-04-14T05:34:41.784Z,81.90
2023-04-14T05:37:10.206Z,81.80
2023-04-14T05:39:39.796Z,81.70
2023-04-14T05:42:08.048Z,81.70
2023-04-14T05:44:36.514Z,81.50
2023-04-14T05:47:04.836Z,81.50
2023-04-14T05:49:37.023Z,81.40
2023-04-14T05:52:05.726Z,81.40
2023-04-14T05:54:34.069Z,81.30
2023-04-14T05:57:04.248Z,81.30
2023-04-14T05:59:32.845Z,81.10
2023-04-14T06:02:04.894Z,81.00
2023-04-14T06:04:33.428Z,80.90
2023-04-14T06:07:02.923Z,80.80
2023-04-14T06:09:31.605Z,80.80
2023-04-14T06:11:59.955Z,81.60
2023-04-14T06:14:29.597Z,81.60
2023-04-14T06:16:57.961Z,80.80
2023-04-14T06:19:26.342Z,80.80
2023-04-14T06:21:54.654Z,80.80
2023-04-14T06:24:22.961Z,80.70
2023-04-14T06:26:51.314Z,80.70
2023-04-14T06:29:19.687Z,80.70
2023-04-14T06:31:51.796Z,80.60
2023-04-14T06:34:20.620Z,80.60
2023-04-14T06:36:48.943Z,80.60
2023-04-14T06:39:17.237Z,80.60
2023-04-14T06:41:45.702Z,80.60
2023-04-14T06:44:14.817Z,80.50
2023-04-14T06:46:43.044Z,80.50
2023-04-14T06:49:12.790Z,80.50
2023-04-14T06:51:40.982Z,80.50
2023-04-14T06:54:09.724Z,80.40
2023-04-14T06:56:38.144Z,80.40
2023-04-14T06:59:06.545Z,80.30
2023-04-14T07:01:35.074Z,80.30
2023-04-14T07:04:07.567Z,80.40
2023-04-14T07:06:40.210Z,80.40
2023-04-14T07:09:08.573Z,80.30
2023-04-14T07:11:36.841Z,80.30
2023-04-14T07:14:05.105Z,80.20
2023-04-14T07:16:33.402Z,80.20
2023-04-14T07:19:01.711Z,80.10
2023-04-14T07:21:30.204Z,80.10
2023-04-14T07:24:00.261Z,80.10
2023-04-14T07:26:28.844Z,80.10
2023-04-14T07:28:57.721Z,80.10
2023-04-14T07:31:26.687Z,80.20
2023-04-14T07:33:55.030Z,80.10
2023-04-14T07:36:23.462Z,80.00
2023-04-14T07:38:52.103Z,80.00
2023-04-14T07:41:21.898Z,80.00
2023-04-14T07:43:50.436Z,80.00
2023-04-14T07:46:18.845Z,80.00
2023-04-14T07:48:47.194Z,80.00
2023-04-14T07:51:15.742Z,79.90
2023-04-14T07:53:45.166Z,79.90
2023-04-14T07:56:14.049Z,79.90
2023-04-14T07:58:43.712Z,79.80
2023-04-14T08:01:12.167Z,79.80
2023-04-14T08:03:42.933Z,79.70
2023-04-14T08:06:13.859Z,79.70
2023-04-14T08:08:42.929Z,79.80
2023-04-14T08:11:11.230Z,79.60
2023-04-14T08:13:39.543Z,79.70
2023-04-14T08:16:09.743Z,79.60
2023-04-14T08:18:38.222Z,79.70
2023-04-14T08:21:06.814Z,79.60
2023-04-14T08:23:35.452Z,79.60
2023-04-14T08:26:03.996Z,79.50
2023-04-14T08:28:32.411Z,79.60
2023-04-14T08:31:01.179Z,79.50
2023-04-14T08:33:30.925Z,79.60
2023-04-14T08:36:00.469Z,79.50
2023-04-14T08:38:29.708Z,79.40
2023-04-14T08:40:58.406Z,79.50
2023-04-14T08:43:26.690Z,79.40
2023-04-14T08:45:56.063Z,79.40
2023-04-14T08:48:28.552Z,79.40
2023-04-14T08:51:04.786Z,79.30
2023-04-14T08:53:33.834Z,79.30
2023-04-14T08:56:04.930Z,79.40
2023-04-14T08:58:33.535Z,79.30
2023-04-14T09:01:03.307Z,79.30
2023-04-14T09:03:32.820Z,79.30
2023-04-14T09:06:02.748Z,79.30
2023-04-14T09:08:34.168Z,79.30
2023-04-14T09:11:03.547Z,79.20
2023-04-14T09:13:32.609Z,79.30
2023-04-14T09:16:01.903Z,79.30
2023-04-14T09:18:31.464Z,79.30
2023-04-14T09:21:49.887Z,79.40
2023-04-14T09:23:54.892Z,79.20
2023-04-14T09:26:23.189Z,79.30
2023-04-14T09:28:52.476Z,79.20
2023-04-14T09:31:21.672Z,79.30
2023-04-14T09:33:51.268Z,79.20
2023-04-14T09:36:22.433Z,79.30
2023-04-14T09:38:51.670Z,80.10
2023-04-14T09:41:22.512Z,79.20
2023-04-14T09:43:52.711Z,79.30
2023-04-14T09:46:21.681Z,79.20
2023-04-14T09:48:55.172Z,79.30
2023-04-14T09:51:29.563Z,80.00
2023-04-14T09:54:03.779Z,79.40
2023-04-14T09:56:32.658Z,79.20
2023-04-14T09:59:02.993Z,79.20
2023-04-14T10:01:33.968Z,79.30
2023-04-14T10:04:03.793Z,79.20
2023-04-14T10:06:33.870Z,79.20
2023-04-14T10:09:02.932Z,79.20
2023-04-14T10:11:33.477Z,79.30
2023-04-14T10:14:03.935Z,79.30
2023-04-14T10:16:32.800Z,79.30
2023-04-14T10:19:02.255Z,79.20
2023-04-14T10:21:31.051Z,79.30
2023-04-14T10:24:01.642Z,79.20
2023-04-14T10:26:31.263Z,79.20
2023-04-14T10:29:02.231Z,79.20
2023-04-14T10:31:34.371Z,79.30
2023-04-14T10:34:08.860Z,79.30
2023-04-14T10:36:37.860Z,79.30
2023-04-14T10:39:09.793Z,80.10
2023-04-14T10:41:46.866Z,79.20
2023-04-14T10:44:26.365Z,79.20
2023-04-14T10:46:56.438Z,79.20
2023-04-14T10:49:32.870Z,79.20
2023-04-14T10:52:04.370Z,79.20
2023-04-14T10:54:53.332Z,79.30
2023-04-14T10:57:23.852Z,79.30
2023-04-14T10:59:57.221Z,79.20
2023-04-14T11:02:30.522Z,79.20
2023-04-14T11:05:00.530Z,79.20
2023-04-14T11:07:31.414Z,79.20
2023-04-14T11:10:27.130Z,79.30
2023-04-14T11:13:02.253Z,79.40
2023-04-14T11:15:50.764Z,79.40
2023-04-14T11:18:23.081Z,79.40
2023-04-14T11:20:53.938Z,79.50
2023-04-14T11:23:29.098Z,79.40
2023-04-14T11:25:59.147Z,79.40
2023-04-14T11:28:31.965Z,79.50
2023-04-14T11:31:01.509Z,79.50
2023-04-14T11:33:30.787Z,79.40
2023-04-14T11:35:59.540Z,79.40
2023-04-14T11:38:28.370Z,79.40
2023-04-14T11:40:58.322Z,79.40
2023-04-14T11:43:26.628Z,79.40
2023-04-14T11:45:55.392Z,79.40
2023-04-14T11:48:23.825Z,79.40
2023-04-14T11:50:52.275Z,79.40
2023-04-14T11:53:21.159Z,79.50
2023-04-14T11:55:50.951Z,79.50
2023-04-14T11:58:24.550Z,79.50
2023-04-14T12:00:55.712Z,79.70
2023-04-14T12:03:28.517Z,79.60
2023-04-14T12:05:59.986Z,79.50
2023-04-14T12:08:31.441Z,79.50
2023-04-14T12:11:13.214Z,79.60
2023-04-14T12:13:43.250Z,79.50
2023-04-14T12:16:12.164Z,79.50
2023-04-14T12:18:40.741Z,79.50
2023-04-14T12:21:11.902Z,79.50
2023-04-14T12:23:41.690Z,79.60
2023-04-14T12:26:13.546Z,79.60
2023-04-14T12:28:43.370Z,79.60
2023-04-14T12:31:11.986Z,79.70
2023-04-14T12:33:40.398Z,79.70
2023-04-14T12:36:12.708Z,79.80
2023-04-14T12:38:41.688Z,79.80
2023-04-14T12:41:10.965Z,80.00
2023-04-14T12:43:40.702Z,80.10
2023-04-14T12:46:10.585Z,80.10
2023-04-14T12:48:44.326Z,80.00
2023-04-14T12:51:14.240Z,80.00
2023-04-14T12:53:43.716Z,79.90
2023-04-14T12:56:14.120Z,79.90
2023-04-14T12:58:43.611Z,79.80
2023-04-14T13:01:14.183Z,79.90
2023-04-14T13:03:47.130Z,79.80
2023-04-14T13:06:18.090Z,79.80
2023-04-14T13:08:47.532Z,79.80
2023-04-14T13:11:16.588Z,79.80
2023-04-14T13:13:45.507Z,80.60
2023-04-14T13:16:17.996Z,79.80
2023-04-14T13:18:49.030Z,79.80
2023-04-14T13:21:17.377Z,79.70
2023-04-14T13:23:46.081Z,79.70
2023-04-14T13:26:14.547Z,79.70
2023-04-14T13:28:42.860Z,79.80
2023-04-14T13:31:13.029Z,79.70
2023-04-14T13:33:42.772Z,79.70
2023-04-14T13:36:11.101Z,79.70
2023-04-14T13:38:39.381Z,79.80
2023-04-14T13:41:07.721Z,80.60
2023-04-14T13:43:36.136Z,79.90
2023-04-14T13:46:04.585Z,79.90
2023-04-14T13:48:33.986Z,79.90
2023-04-14T13:51:04.008Z,79.90
2023-04-14T13:53:32.469Z,79.80
2023-04-14T13:56:01.981Z,79.90
2023-04-14T13:58:30.791Z,80.00
2023-04-14T14:00:59.195Z,80.00
2023-04-14T14:03:32.443Z,80.00
2023-04-14T14:06:01.377Z,80.10
2023-04-14T14:08:31.316Z,80.00
2023-04-14T14:10:59.674Z,80.10
2023-04-14T14:13:27.902Z,80.10
2023-04-14T14:15:56.574Z,80.10
2023-04-14T14:18:25.030Z,80.10
2023-04-14T14:20:53.534Z,80.20
2023-04-14T14:23:22.016Z,80.20
2023-04-14T14:25:52.661Z,80.20
2023-04-14T14:28:22.537Z,80.20
2023-04-14T14:30:51.176Z,80.20
2023-04-14T14:33:19.648Z,80.10
2023-04-14T14:35:48.058Z,80.20
2023-04-14T14:38:16.711Z,80.20
2023-04-14T14:40:45.154Z,80.20
2023-04-14T14:43:14.920Z,80.20
2023-04-14T14:45:45.819Z,80.20
2023-04-14T14:48:14.834Z,80.20
2023-04-14T14:50:43.228Z,80.20
2023-04-14T14:53:11.812Z,80.20
2023-04-14T14:55:40.109Z,80.30
2023-04-14T14:58:09.566Z,80.30
2023-04-14T15:00:39.589Z,80.30
2023-04-14T15:03:08.196Z,80.30
2023-04-14T15:05:36.679Z,80.30
2023-04-14T15:08:05.315Z,80.40
2023-04-14T15:10:33.675Z,80.20
2023-04-14T15:13:02.017Z,80.30
2023-04-14T15:15:30.309Z,80.40
2023-04-14T15:18:00.329Z,80.40
2023-04-14T15:20:28.796Z,80.40
2023-04-14T15:22:57.164Z,80.40
2023-04-14T15:25:25.850Z,80.40
2023-04-14T15:27:54.705Z,80.40
2023-04-14T15:30:23.936Z,80.50
2023-04-14T15:32:54.658Z,80.50
2023-04-14T15:35:24.799Z,80.50
2023-04-14T15:37:53.140Z,80.50
2023-04-14T15:40:21.641Z,80.50
2023-04-14T15:42:49.968Z,80.50
2023-04-14T15:45:21.865Z,80.50
2023-04-14T15:47:51.338Z,80.60
2023-04-14T15:50:20.257Z,80.60
2023-04-14T15:52:50.867Z,80.60
2023-04-14T15:55:19.228Z,80.70
2023-04-14T15:57:48.477Z,80.70
2023-04-14T16:00:17.988Z,80.70
2023-04-14T16:02:46.870Z,80.70
2023-04-14T16:05:15.439Z,80.60
2023-04-14T16:07:44.818Z,80.70
2023-04-14T16:10:14.726Z,80.70
2023-04-14T16:12:43.541Z,80.70
2023-04-14T16:15:13.024Z,80.70
2023-04-14T16:17:42.305Z,80.70
2023-04-14T16:20:12.673Z,80.70
2023-04-14T16:22:41.112Z,80.70
2023-04-14T16:25:10.261Z,80.70
2023-04-14T16:27:39.983Z,80.80
2023-04-14T16:30:09.506Z,80.80
2023-04-14T16:32:37.997Z,80.70
2023-04-14T16:35:07.395Z,80.70
2023-04-14T16:37:36.232Z,80.70
2023-04-14T16:40:06.876Z,80.80
2023-04-14T16:42:36.942Z,80.70
2023-04-14T16:45:08.835Z,81.60
2023-04-14T16:47:37.160Z,80.80
2023-04-14T16:50:06.113Z,80.80
2023-04-14T16:52:35.075Z,80.90
2023-04-14T16:55:03.552Z,80.80
2023-04-14T16:57:32.743Z,80.80
2023-04-14T17:00:01.175Z,80.90
2023-04-14T17:02:31.279Z,80.80
2023-04-14T17:05:00.063Z,80.80
2023-04-14T17:07:28.473Z,80.80
2023-04-14T17:09:56.851Z,80.90
2023-04-14T17:12:25.313Z,80.90
2023-04-14T17:14:53.596Z,80.90
2023-04-14T17:17:21.929Z,80.90
2023-04-14T17:19:52.162Z,81.00
2023-04-14T17:22:20.422Z,81.00
2023-04-14T17:24:48.781Z,81.00
2023-04-14T17:27:17.184Z,80.90
2023-04-14T17:29:46.456Z,81.00
2023-04-14T17:32:15.083Z,81.00
2023-04-14T17:34:43.711Z,81.00
2023-04-14T17:37:14.419Z,81.00
2023-04-14T17:39:43.382Z,81.00
2023-04-14T17:42:12.604Z,81.00
2023-04-14T17:44:44.247Z,81.80
2023-04-14T17:47:15.527Z,81.00
2023-04-14T17:49:44.010Z,81.00
2023-04-14T17:52:22.518Z,81.00
2023-04-14T17:54:51.773Z,81.10
2023-04-14T17:57:20.110Z,81.10
2023-04-14T17:59:48.590Z,81.10
2023-04-14T18:02:17.176Z,81.10
2023-04-14T18:04:45.605Z,81.90
2023-04-14T18:07:14.018Z,81.10
2023-04-14T18:09:43.769Z,81.10
2023-04-14T18:12:12.221Z,81.20
2023-04-14T18:14:41.563Z,81.20
2023-04-14T18:17:10.706Z,81.20
2023-04-14T18:19:39.354Z,81.30
2023-04-14T18:22:07.859Z,81.20
2023-04-14T18:29:40.550Z,81.30
2023-04-14T18:32:09.336Z,81.30
2023-04-14T18:34:38.155Z,81.30
2023-04-14T18:37:06.394Z,81.30
2023-04-14T18:39:36.632Z,81.30
2023-04-14T18:42:05.270Z,81.40
2023-04-14T18:44:35.452Z,81.30
2023-04-14T18:47:03.918Z,81.30
2023-04-14T18:49:32.199Z,81.40
2023-04-14T18:52:00.496Z,81.40
2023-04-14T18:54:28.946Z,82.10
2023-04-14T18:56:57.220Z,81.30
2023-04-14T18:59:26.076Z,81.40
2023-04-14T19:01:55.790Z,81.40
2023-04-14T19:04:24.531Z,81.30
2023-04-14T19:06:52.866Z,81.30
2023-04-14T19:09:21.133Z,81.30
2023-04-14T19:11:49.570Z,81.50
2023-04-14T19:14:17.844Z,81.40
2023-04-14T19:16:46.521Z,81.80
2023-04-14T19:19:16.784Z,81.40
2023-04-14T19:21:45.149Z,81.50
2023-04-14T19:24:13.583Z,81.30
2023-04-14T19:26:42.099Z,81.40
2023-04-14T19:29:10.346Z,81.50
2023-04-14T19:31:39.321Z,81.50
2023-04-14T19:34:07.704Z,81.50
2023-04-14T19:36:37.781Z,81.50
2023-04-14T19:39:06.234Z,81.50
2023-04-14T19:41:34.573Z,81.50
2023-04-14T19:44:04.069Z,82.40
2023-04-14T19:46:33.020Z,81.50
2023-04-14T19:49:01.883Z,81.50
2023-04-14T19:51:30.476Z,81.50
2023-04-14T19:54:01.084Z,81.50
2023-04-14T19:56:29.622Z,81.40
2023-04-14T19:58:58.412Z,82.30
2023-04-14T20:01:26.983Z,81.40
2023-04-14T20:04:07.388Z,81.50
2023-04-14T20:06:41.106Z,81.40
2023-04-14T20:09:10.954Z,81.50
2023-04-14T20:11:39.341Z,81.40
2023-04-14T20:14:07.689Z,81.40
2023-04-14T20:16:36.394Z,81.40
2023-04-14T20:19:04.975Z,81.40
2023-04-14T20:21:33.694Z,81.50
2023-04-14T20:24:02.417Z,81.40
2023-04-14T20:26:32.530Z,81.50
2023-04-14T20:29:01.104Z,81.40
2023-04-14T20:31:29.773Z,81.40
2023-04-14T20:33:58.385Z,81.40
2023-04-14T20:36:26.752Z,81.50
2023-04-14T20:38:55.206Z,81.50
2023-04-14T20:41:23.498Z,82.30
2023-04-14T20:43:53.194Z,81.50
2023-04-14T20:46:22.093Z,81.50
2023-04-14T20:48:50.556Z,81.50
2023-04-14T20:51:19.715Z,81.50
2023-04-14T20:53:48.578Z,81.50
2023-04-14T20:56:16.859Z,81.60
2023-04-14T20:58:45.730Z,81.60
2023-04-14T21:01:15.617Z,81.50
2023-04-14T21:03:43.954Z,81.60
2023-04-14T21:06:12.494Z,81.50
2023-04-14T21:08:40.936Z,81.50
2023-04-14T21:11:14.921Z,81.50
2023-04-14T21:15:26.341Z,81.50
2023-04-14T21:16:35.812Z,81.50
2023-04-14T21:19:05.611Z,81.50
2023-04-14T21:21:34.440Z,81.50
2023-04-14T21:24:03.353Z,81.60
2023-04-14T21:26:31.905Z,81.50
2023-04-14T21:29:00.579Z,81.50
2023-04-14T21:31:29.246Z,81.50
2023-04-14T21:33:58.959Z,81.50
2023-04-14T21:36:27.462Z,81.50
2023-04-14T21:38:56.422Z,81.60
2023-04-14T21:41:24.712Z,81.50
2023-04-14T21:43:53.455Z,81.60
2023-04-14T21:46:21.735Z,81.60
2023-04-14T21:48:50.059Z,81.50
2023-04-14T21:51:20.103Z,81.60
2023-04-14T21:53:48.457Z,81.60
2023-04-14T21:56:17.523Z,81.60
2023-04-14T21:58:46.820Z,81.60
2023-04-14T22:01:15.571Z,81.60
2023-04-14T22:03:44.891Z,81.60
2023-04-14T22:06:14.389Z,81.60
2023-04-14T22:08:44.038Z,81.70
2023-04-14T22:11:12.527Z,81.70
2023-04-14T22:13:41.136Z,81.60
2023-04-14T22:16:11.278Z,81.60
2023-04-14T22:18:39.952Z,81.60
2023-04-14T22:21:10.835Z,81.70
2023-04-14T22:23:40.179Z,81.60
2023-04-14T22:26:10.132Z,81.60
2023-04-14T22:28:38.534Z,81.60
2023-04-14T22:31:07.713Z,82.00
2023-04-14T22:33:36.396Z,81.60
2023-04-14T22:36:06.696Z,81.60
2023-04-14T22:38:35.046Z,81.70
2023-04-14T22:41:03.461Z,81.60
2023-04-14T22:43:33.097Z,81.60
2023-04-14T22:46:01.809Z,81.70
2023-04-14T22:48:30.449Z,81.60
2023-04-14T22:50:58.742Z,81.60
2023-04-14T22:53:27.024Z,81.60
2023-04-14T22:55:55.364Z,81.70
2023-04-14T22:58:24.188Z,81.60
2023-04-14T23:00:53.844Z,81.60
2023-04-14T23:03:22.784Z,81.60
2023-04-14T23:05:51.843Z,81.60
2023-04-14T23:08:20.374Z,81.60
2023-04-14T23:10:48.634Z,81.50
2023-04-14T23:13:16.888Z,81.60
2023-04-14T23:15:45.282Z,81.60
2023-04-14T23:18:15.616Z,81.50
2023-04-14T23:20:44.564Z,81.60
2023-04-14T23:23:14.505Z,81.50
2023-04-14T23:25:42.790Z,82.40
2023-04-14T23:28:11.029Z,81.60
2023-04-14T23:30:39.446Z,81.70
2023-04-14T23:33:07.726Z,81.70
2023-04-14T23:35:38.855Z,81.60
2023-04-14T23:38:07.235Z,81.60
2023-04-14T23:40:36.298Z,81.60
2023-04-14T23:43:05.122Z,81.60
2023-04-14T23:45:37.129Z,81.60
2023-04-14T23:48:06.513Z,81.70
2023-04-14T23:51:01.369Z,81.60
2023-04-14T23:53:24.642Z,81.70
2023-04-14T23:55:52.976Z,81.60
2023-04-14T23:58:26.532Z,81.60
